Time;durP1;ratioP1;P1;durP2;ratioP2;P2;SDS_P1;SDS_P2;PMS_P1;PMS_P2;Temp;Humidity;BMP_temperature;BMP_pressure;BME280_temperature;BME280_humidity;BME280_pressure;Samples;Min_cycle;Max_cycle;Signal;HPM_P1;HPM_P2
2023/01/15 00:02:04;;;;;;;5.80;5.60;;;7.00;99.90;;;;;;5012024;28;20246;-65
2023/01/15 00:04:30;;;;;;;4.77;4.57;;;6.90;99.90;;;;;;5012628;28;20550;-65
2023/01/15 00:06:55;;;;;;;6.10;5.80;;;6.90;99.90;;;;;;5011651;28;20208;-64
2023/01/15 00:09:21;;;;;;;5.40;5.10;;;6.80;99.90;;;;;;5022995;28;20195;-65
2023/01/15 00:11:46;;;;;;;6.00;5.80;;;6.80;99.90;;;;;;5031365;28;20225;-65
2023/01/15 00:14:12;;;;;;;7.03;5.03;;;6.70;99.90;;;;;;5020956;28;20180;-65
2023/01/15 00:16:39;;;;;;;5.30;5.10;;;6.60;99.90;;;;;;5011486;28;20571;-65
2023/01/15 00:19:07;;;;;;;5.40;5.20;;;6.60;99.90;;;;;;5019790;28;20179;-65
2023/01/15 00:21:33;;;;;;;5.30;5.10;;;6.50;99.90;;;;;;5030565;28;20649;-65
2023/01/15 00:29:27;;;;;;;5.20;5.00;;;6.30;99.90;;;;;;5021550;28;20186;-65
2023/01/15 00:31:58;;;;;;;5.40;5.20;;;6.20;99.90;;;;;;5024141;28;20577;-65
2023/01/15 00:34:25;;;;;;;5.30;5.10;;;6.20;99.90;;;;;;5011259;28;20188;-65
2023/01/15 00:36:51;;;;;;;5.23;4.97;;;6.20;99.90;;;;;;5017472;28;20195;-65
2023/01/15 00:39:16;;;;;;;5.50;5.30;;;6.10;99.90;;;;;;5029493;28;20180;-65
2023/01/15 00:41:42;;;;;;;5.90;5.60;;;6.10;99.90;;;;;;5026257;28;20180;-65
2023/01/15 00:44:08;;;;;;;6.53;6.03;;;6.20;99.90;;;;;;5011429;28;20214;-65
2023/01/15 00:46:33;;;;;;;5.03;4.83;;;6.20;99.90;;;;;;5013420;28;20286;-65
2023/01/15 00:48:59;;;;;;;5.40;5.10;;;6.10;99.90;;;;;;5031024;28;20217;-65
2023/01/15 00:51:25;;;;;;;5.90;5.60;;;6.10;99.90;;;;;;5029403;28;20771;-65
2023/01/15 00:53:50;;;;;;;5.40;5.20;;;6.10;99.90;;;;;;5011227;28;20188;-65
2023/01/15 00:56:16;;;;;;;5.30;5.00;;;6.10;99.90;;;;;;5011842;28;20258;-65
2023/01/15 00:58:41;;;;;;;5.20;5.00;;;6.10;99.90;;;;;;5031888;28;20203;-65
2023/01/15 01:01:07;;;;;;;4.80;4.60;;;6.20;99.90;;;;;;5034138;28;20175;-65
2023/01/15 01:03:32;;;;;;;5.10;4.90;;;6.20;99.90;;;;;;5016721;28;20619;-65
2023/01/15 01:06:00;;;;;;;6.40;6.00;;;6.20;99.90;;;;;;5014549;28;20204;-65
2023/01/15 01:08:26;;;;;;;5.43;5.13;;;6.20;99.90;;;;;;5029813;28;20226;-65
2023/01/15 01:11:06;;;;;;;6.20;5.60;;;6.20;99.90;;;;;;5032758;28;20546;-65
2023/01/15 01:13:33;;;;;;;5.47;5.13;;;6.30;99.90;;;;;;5018039;28;20689;-65
2023/01/15 01:15:59;;;;;;;10.80;5.10;;;6.30;99.90;;;;;;5014447;28;20176;-65
2023/01/15 01:18:25;;;;;;;5.20;5.00;;;6.30;99.90;;;;;;5028422;28;20667;-65
2023/01/15 01:20:51;;;;;;;5.80;5.00;;;6.30;99.90;;;;;;5033453;28;20267;-66
2023/01/15 01:23:16;;;;;;;5.33;5.13;;;6.30;99.90;;;;;;5020752;28;20208;-65
2023/01/15 01:25:42;;;;;;;5.10;4.90;;;6.30;99.90;;;;;;5014154;28;20517;-65
2023/01/15 01:28:08;;;;;;;5.77;5.43;;;6.30;99.90;;;;;;5010789;28;20231;-65
2023/01/15 01:30:33;;;;;;;5.53;5.17;;;6.40;99.90;;;;;;4994067;28;20260;-65
2023/01/15 01:32:59;;;;;;;5.57;5.23;;;6.40;99.90;;;;;;5016868;28;20209;-65
2023/01/15 01:35:24;;;;;;;5.70;5.40;;;6.40;99.90;;;;;;5033799;28;20185;-65
2023/01/15 01:37:50;;;;;;;5.40;5.20;;;6.50;99.90;;;;;;5024397;28;20551;-65
2023/01/15 01:40:18;;;;;;;6.73;5.20;;;6.50;99.90;;;;;;5013433;28;20172;-66
2023/01/15 01:42:44;;;;;;;4.80;4.60;;;6.50;99.90;;;;;;5020087;28;20222;-64
2023/01/15 01:45:28;;;;;;;5.33;5.03;;;6.50;99.90;;;;;;5013970;28;20226;-64
2023/01/15 01:48:01;;;;;;;5.77;5.47;;;6.50;99.90;;;;;;5022424;28;20180;-64
2023/01/15 01:50:28;;;;;;;5.40;5.10;;;6.50;99.90;;;;;;5033093;28;20644;-64
2023/01/15 01:53:00;;;;;;;6.50;5.83;;;6.60;99.90;;;;;;5024827;28;20677;-64
2023/01/15 01:55:27;;;;;;;5.17;4.97;;;6.60;99.90;;;;;;5020436;28;20168;-64
2023/01/15 01:57:58;;;;;;;5.50;5.30;;;6.60;99.90;;;;;;5033417;28;20178;-64
2023/01/15 02:00:24;;;;;;;5.50;5.30;;;6.60;99.90;;;;;;5014664;28;20172;-64
2023/01/15 02:02:51;;;;;;;5.23;5.03;;;6.60;99.90;;;;;;5013493;28;20184;-64
2023/01/15 02:05:32;;;;;;;5.27;5.07;;;6.70;99.90;;;;;;5030323;28;20171;-65
2023/01/15 02:07:59;;;;;;;4.90;4.70;;;6.70;99.90;;;;;;5032146;28;20683;-64
2023/01/15 02:10:25;;;;;;;5.03;4.83;;;6.70;99.90;;;;;;5015409;28;20535;-65
2023/01/15 02:13:03;;;;;;;5.10;4.90;;;6.70;99.90;;;;;;5013440;28;20207;-65
2023/01/15 02:15:37;;;;;;;5.10;4.90;;;6.70;99.90;;;;;;5025295;28;20652;-64
2023/01/15 02:18:25;;;;;;;5.27;5.07;;;6.70;99.90;;;;;;5013444;28;20175;-64
2023/01/15 02:21:06;;;;;;;5.17;4.77;;;6.70;99.90;;;;;;5008801;28;20234;-64
2023/01/15 02:23:52;;;;;;;4.60;4.40;;;6.70;99.90;;;;;;5022739;28;20199;-64
2023/01/15 02:26:41;;;;;;;5.27;4.90;;;6.80;99.90;;;;;;5037884;28;20716;-64
2023/01/15 02:29:12;;;;;;;5.00;4.80;;;6.80;99.90;;;;;;4998316;28;20172;-65
2023/01/15 02:31:43;;;;;;;4.70;4.50;;;6.70;99.90;;;;;;4996402;28;20177;-64
2023/01/15 02:34:10;;;;;;;5.20;5.00;;;6.80;99.90;;;;;;5032733;28;20171;-64
2023/01/15 02:36:42;;;;;;;5.50;5.10;;;6.80;99.90;;;;;;5030391;28;20656;-64
2023/01/15 02:39:11;;;;;;;5.80;5.50;;;6.80;99.90;;;;;;5012737;28;20191;-64
2023/01/15 02:41:42;;;;;;;5.20;5.00;;;6.80;99.90;;;;;;5012554;28;20617;-64
2023/01/15 02:44:10;;;;;;;5.10;4.90;;;6.80;99.90;;;;;;4993238;28;20270;-64
2023/01/15 02:46:37;;;;;;;6.27;5.70;;;6.80;99.90;;;;;;4993127;28;20755;-64
2023/01/15 02:49:07;;;;;;;5.30;5.10;;;6.80;99.90;;;;;;5012858;28;20752;-64
2023/01/15 02:51:55;;;;;;;5.37;5.17;;;6.80;99.90;;;;;;5019438;28;20179;-64
2023/01/15 02:54:24;;;;;;;5.87;5.67;;;6.90;99.90;;;;;;5032160;28;20203;-64
2023/01/15 02:56:51;;;;;;;5.70;5.50;;;6.90;99.90;;;;;;5030619;28;20199;-64
2023/01/15 02:59:23;;;;;;;5.60;5.33;;;6.80;99.90;;;;;;5030164;28;20175;-64
2023/01/15 03:01:55;;;;;;;4.67;4.47;;;6.80;99.90;;;;;;5023380;28;20641;-64
2023/01/15 03:04:30;;;;;;;5.33;5.13;;;6.80;99.90;;;;;;5012483;28;20176;-64
2023/01/15 03:07:05;;;;;;;5.20;5.00;;;6.80;99.90;;;;;;5013918;28;20610;-64
2023/01/15 03:09:31;;;;;;;5.47;5.27;;;6.80;99.90;;;;;;4992360;28;20259;-64
2023/01/15 03:12:24;;;;;;;7.40;5.30;;;6.80;99.90;;;;;;5002463;28;20192;-64
2023/01/15 03:15:07;;;;;;;4.83;4.53;;;6.80;99.90;;;;;;5012214;28;20648;-64
2023/01/15 03:17:39;;;;;;;4.87;4.67;;;6.80;99.90;;;;;;5023403;28;20175;-64
2023/01/15 03:20:24;;;;;;;5.60;5.40;;;6.90;99.90;;;;;;5031610;28;20179;-64
2023/01/15 03:22:59;;;;;;;5.00;4.73;;;6.90;99.90;;;;;;5016899;28;20203;-64
2023/01/15 03:25:29;;;;;;;5.10;4.90;;;6.80;99.90;;;;;;5012048;28;20711;-64
2023/01/15 03:27:59;;;;;;;5.20;5.00;;;6.80;99.90;;;;;;5026804;28;20564;-64
2023/01/15 03:30:25;;;;;;;4.80;4.60;;;6.90;99.90;;;;;;5031357;28;20178;-64
2023/01/15 03:32:53;;;;;;;6.73;4.87;;;6.80;99.90;;;;;;5017796;28;20196;-64
2023/01/15 03:35:43;;;;;;;5.13;4.83;;;6.80;99.90;;;;;;5014616;28;20654;-64
2023/01/15 03:38:10;;;;;;;5.20;4.97;;;6.90;99.90;;;;;;5031706;28;20533;-64
2023/01/15 03:40:39;;;;;;;5.03;4.80;;;6.90;99.90;;;;;;5026350;28;20182;-64
2023/01/15 03:46:03;;;;;;;5.30;4.80;;;6.90;99.90;;;;;;5018906;28;20302;-64
2023/01/15 03:48:50;;;;;;;4.83;4.63;;;6.90;99.90;;;;;;5031352;28;20167;-64
2023/01/15 03:51:22;;;;;;;5.23;4.90;;;6.90;99.90;;;;;;5021937;28;20529;-64
2023/01/15 03:53:52;;;;;;;5.20;5.00;;;6.90;99.90;;;;;;5011844;28;20223;-64
2023/01/15 03:56:32;;;;;;;5.43;5.13;;;6.90;99.90;;;;;;5020115;28;20183;-64
2023/01/15 03:59:09;;;;;;;5.37;4.93;;;6.90;99.90;;;;;;5024806;28;20176;-64
2023/01/15 04:01:40;;;;;;;5.53;5.17;;;6.90;99.90;;;;;;5011677;28;20226;-64
2023/01/15 04:04:06;;;;;;;5.83;5.07;;;6.90;99.90;;;;;;5019574;28;20241;-64
2023/01/15 04:06:37;;;;;;;5.43;5.13;;;6.90;99.90;;;;;;5034979;28;20207;-64
2023/01/15 04:09:05;;;;;;;5.60;5.30;;;6.90;99.90;;;;;;5025749;28;20191;-63
2023/01/15 04:11:31;;;;;;;5.77;5.37;;;6.90;99.90;;;;;;5011437;28;20171;-63
2023/01/15 04:13:57;;;;;;;5.33;5.13;;;6.90;99.90;;;;;;5011353;28;20196;-64
2023/01/15 04:16:29;;;;;;;5.53;5.33;;;6.80;99.90;;;;;;5011680;28;20164;-64
2023/01/15 04:18:54;;;;;;;5.53;5.33;;;6.80;99.90;;;;;;5028235;28;20211;-64
2023/01/15 04:21:20;;;;;;;5.77;5.43;;;6.80;99.90;;;;;;5030911;28;20230;-64
2023/01/15 04:23:47;;;;;;;5.80;5.50;;;6.80;99.90;;;;;;5015924;28;20295;-63
2023/01/15 04:26:13;;;;;;;5.50;5.10;;;6.80;99.90;;;;;;5011591;28;20270;-64
2023/01/15 04:28:39;;;;;;;5.87;5.47;;;6.80;99.90;;;;;;5024510;28;20233;-64
2023/01/15 04:31:05;;;;;;;5.17;4.97;;;6.80;99.90;;;;;;5030652;28;20164;-64
2023/01/15 04:33:31;;;;;;;5.33;5.03;;;6.80;99.90;;;;;;5013834;28;20678;-64
2023/01/15 04:36:00;;;;;;;5.90;5.20;;;6.80;99.90;;;;;;5015311;28;20181;-64
2023/01/15 04:38:26;;;;;;;6.00;5.70;;;6.80;99.90;;;;;;5033937;28;20175;-64
2023/01/15 04:46:21;;;;;;;6.30;5.67;;;6.80;99.90;;;;;;4996872;28;20227;-64
2023/01/15 04:48:47;;;;;;;5.33;5.13;;;6.80;99.90;;;;;;5034579;28;20178;-64
2023/01/15 04:51:12;;;;;;;8.57;7.97;;;6.80;99.90;;;;;;5034276;28;20176;-64
2023/01/15 04:53:38;;;;;;;6.57;5.93;;;6.80;99.90;;;;;;5015370;28;20240;-65
2023/01/15 04:56:04;;;;;;;5.53;5.33;;;6.80;99.90;;;;;;5014810;28;20184;-64
2023/01/15 04:58:31;;;;;;;5.63;5.23;;;6.80;99.90;;;;;;5015931;28;20723;-64
2023/01/15 05:00:59;;;;;;;5.77;5.47;;;6.80;99.90;;;;;;5014490;28;20180;-64
2023/01/15 05:03:27;;;;;;;8.40;4.90;;;6.80;99.90;;;;;;5029990;28;20294;-64
2023/01/15 05:05:53;;;;;;;5.40;5.10;;;6.90;99.90;;;;;;5034327;28;20179;-64
2023/01/15 05:08:19;;;;;;;5.53;5.03;;;6.70;99.90;;;;;;5020092;28;20187;-65
2023/01/15 05:10:44;;;;;;;6.73;6.43;;;6.90;99.90;;;;;;5014104;28;20191;-64
2023/01/15 05:13:10;;;;;;;9.47;9.03;;;6.90;99.90;;;;;;5026513;28;20273;-65
2023/01/15 05:15:37;;;;;;;6.40;5.90;;;6.90;99.90;;;;;;5034178;28;20176;-64
2023/01/15 05:18:03;;;;;;;6.83;5.73;;;6.90;99.90;;;;;;5023424;28;20524;-64
2023/01/15 05:20:29;;;;;;;5.53;5.33;;;6.90;99.90;;;;;;5013889;28;20180;-64
2023/01/15 05:22:54;;;;;;;7.40;7.10;;;7.00;99.90;;;;;;5023347;28;20203;-64
2023/01/15 05:25:20;;;;;;;6.27;5.73;;;7.00;99.90;;;;;;5032413;28;20215;-64
2023/01/15 05:27:46;;;;;;;9.23;5.33;;;7.00;99.90;;;;;;5034207;28;20203;-65
2023/01/15 05:30:13;;;;;;;5.53;5.33;;;6.90;99.90;;;;;;5030414;28;20177;-64
2023/01/15 05:32:38;;;;;;;8.67;5.40;;;7.00;99.90;;;;;;5013879;28;20223;-64
2023/01/15 05:35:04;;;;;;;6.33;5.53;;;7.00;99.90;;;;;;5022689;28;20211;-64
2023/01/15 05:37:30;;;;;;;7.97;4.93;;;6.90;99.90;;;;;;5015407;28;20192;-64
2023/01/15 05:39:56;;;;;;;6.97;4.30;;;6.90;99.90;;;;;;5020588;28;20266;-64
2023/01/15 05:42:21;;;;;;;5.90;5.37;;;6.90;99.90;;;;;;5033221;28;20294;-64
2023/01/15 05:44:47;;;;;;;5.63;5.33;;;6.90;99.90;;;;;;5028063;28;20188;-64
2023/01/15 05:47:13;;;;;;;6.60;5.07;;;6.90;99.90;;;;;;5014016;28;20284;-64
2023/01/15 05:49:39;;;;;;;5.27;5.07;;;6.90;99.90;;;;;;5016669;28;20186;-64
2023/01/15 05:52:05;;;;;;;6.60;6.30;;;6.90;99.90;;;;;;5033685;28;20195;-63
2023/01/15 05:54:33;;;;;;;5.23;5.03;;;6.90;99.90;;;;;;5031478;28;20648;-64
2023/01/15 05:57:00;;;;;;;5.37;5.00;;;6.90;99.90;;;;;;5013770;28;20177;-63
2023/01/15 05:59:27;;;;;;;6.07;5.70;;;6.90;99.90;;;;;;5027496;28;20321;-63
2023/01/15 06:01:53;;;;;;;6.40;5.13;;;6.90;99.90;;;;;;5033252;28;20176;-63
2023/01/15 06:04:23;;;;;;;9.37;8.73;;;6.90;99.90;;;;;;5031589;28;20527;-64
2023/01/15 06:06:50;;;;;;;5.20;5.00;;;6.90;99.90;;;;;;5033244;28;20199;-63
2023/01/15 06:09:17;;;;;;;5.10;4.90;;;6.90;99.90;;;;;;5021066;28;20176;-63
2023/01/15 06:11:42;;;;;;;5.20;5.00;;;6.90;99.90;;;;;;5013297;28;20622;-63
2023/01/15 06:14:11;;;;;;;4.77;4.57;;;6.90;99.90;;;;;;5023000;28;20187;-63
2023/01/15 06:16:37;;;;;;;4.77;4.50;;;6.80;99.90;;;;;;5032862;28;20917;-63
2023/01/15 06:19:04;;;;;;;6.70;5.00;;;6.80;99.90;;;;;;5028163;28;20219;-64
2023/01/15 06:21:31;;;;;;;5.50;5.10;;;6.80;99.90;;;;;;5012902;28;20207;-64
2023/01/15 06:23:57;;;;;;;6.40;6.03;;;6.80;99.90;;;;;;5013043;28;20692;-64
2023/01/15 06:26:22;;;;;;;5.03;4.77;;;6.80;99.90;;;;;;5012866;28;20191;-63
2023/01/15 06:28:48;;;;;;;6.03;5.63;;;6.70;99.90;;;;;;5013095;28;20218;-64
2023/01/15 06:31:16;;;;;;;5.03;4.83;;;6.70;99.90;;;;;;5014241;28;20259;-64
2023/01/15 06:33:42;;;;;;;4.90;4.70;;;6.70;99.90;;;;;;5032627;28;20286;-63
2023/01/15 06:36:10;;;;;;;4.70;4.50;;;6.70;99.90;;;;;;5032150;28;20206;-63
2023/01/15 06:38:36;;;;;;;5.77;5.40;;;6.70;99.90;;;;;;5012509;28;20183;-64
2023/01/15 06:41:03;;;;;;;5.80;5.40;;;6.70;99.90;;;;;;5012565;28;20519;-64
2023/01/15 06:49:00;;;;;;;5.60;5.10;;;6.60;99.90;;;;;;5013039;28;20183;-63
2023/01/15 06:51:25;;;;;;;8.43;8.07;;;6.60;99.90;;;;;;5012674;28;20173;-64
2023/01/15 06:53:51;;;;;;;8.93;5.20;;;6.60;99.90;;;;;;5031645;28;20191;-65
2023/01/15 06:56:17;;;;;;;4.97;4.77;;;6.70;99.90;;;;;;5032318;28;20190;-64
2023/01/15 06:58:43;;;;;;;7.23;5.30;;;6.60;99.90;;;;;;5030563;28;20183;-64
2023/01/15 07:01:13;;;;;;;4.90;4.60;;;6.70;99.90;;;;;;5031925;28;20171;-63
2023/01/15 07:03:40;;;;;;;6.30;5.73;;;6.70;99.90;;;;;;5014357;28;20204;-64
2023/01/15 07:06:10;;;;;;;5.57;5.10;;;6.70;99.90;;;;;;5012470;28;20211;-64
2023/01/15 07:08:36;;;;;;;5.27;5.07;;;6.70;99.90;;;;;;5028439;28;20538;-64
2023/01/15 07:11:07;;;;;;;5.10;4.90;;;6.60;99.90;;;;;;5030482;28;20190;-63
2023/01/15 07:13:33;;;;;;;7.93;7.60;;;6.60;99.90;;;;;;5016397;28;20218;-64
2023/01/15 07:16:00;;;;;;;5.37;5.10;;;6.60;99.90;;;;;;5015867;28;20179;-64
2023/01/15 07:18:28;;;;;;;5.30;5.00;;;6.60;99.90;;;;;;5012420;28;20172;-63
2023/01/15 07:20:57;;;;;;;5.13;4.83;;;6.60;99.90;;;;;;5019969;28;20688;-63
2023/01/15 07:23:27;;;;;;;5.70;5.40;;;6.60;99.90;;;;;;5037154;28;20257;-64
2023/01/15 07:25:53;;;;;;;5.43;5.23;;;6.60;99.90;;;;;;5027293;28;20179;-63
2023/01/15 07:28:21;;;;;;;5.30;4.80;;;6.60;99.90;;;;;;5012033;28;20175;-63
2023/01/15 07:30:46;;;;;;;4.77;4.57;;;6.60;99.90;;;;;;5010615;28;20180;-63
2023/01/15 07:33:12;;;;;;;5.07;4.87;;;6.60;99.90;;;;;;5011519;28;20211;-63
2023/01/15 07:35:37;;;;;;;5.07;4.80;;;6.60;99.90;;;;;;5012060;28;20192;-64
2023/01/15 07:38:03;;;;;;;5.23;4.93;;;6.60;99.90;;;;;;5011909;28;20211;-64
2023/01/15 07:40:29;;;;;;;5.30;4.80;;;6.70;99.90;;;;;;5012492;28;20180;-63
2023/01/15 07:51:09;;;;;;;9.07;5.10;;;6.70;99.90;;;;;;5020832;28;20546;-64
2023/01/15 07:53:35;;;;;;;5.30;5.10;;;6.60;99.90;;;;;;5011480;28;20192;-63
2023/01/15 07:56:01;;;;;;;4.90;4.70;;;6.60;99.90;;;;;;5019765;28;20253;-63
2023/01/15 07:58:26;;;;;;;4.70;4.50;;;6.60;99.90;;;;;;5024703;28;20542;-63
2023/01/15 08:00:52;;;;;;;5.10;4.90;;;6.60;99.90;;;;;;5011085;28;20176;-64
2023/01/15 08:03:17;;;;;;;5.20;5.00;;;6.60;99.90;;;;;;5015653;28;20257;-64
2023/01/15 08:05:43;;;;;;;5.73;5.20;;;6.60;99.90;;;;;;5032954;28;20645;-63
2023/01/15 08:08:16;;;;;;;5.30;5.10;;;6.70;99.90;;;;;;5032659;28;20244;-63
2023/01/15 08:16:11;;;;;;;8.73;8.27;;;6.40;99.90;;;;;;5035436;28;20214;-64
2023/01/15 08:18:37;;;;;;;5.03;4.77;;;6.30;99.90;;;;;;5030036;28;20215;-63
2023/01/15 08:21:03;;;;;;;5.87;5.30;;;6.30;99.90;;;;;;5014975;28;20184;-63
2023/01/15 08:23:28;;;;;;;5.07;4.87;;;6.20;99.90;;;;;;5015376;28;20305;-65
2023/01/15 08:25:54;;;;;;;4.90;4.70;;;6.10;99.90;;;;;;5015437;28;20594;-63
2023/01/15 08:28:19;;;;;;;6.37;6.07;;;6.10;99.90;;;;;;5016201;28;20183;-63
2023/01/15 08:30:45;;;;;;;5.10;4.90;;;6.00;99.90;;;;;;5034445;28;20642;-63
2023/01/15 08:33:11;;;;;;;5.90;5.70;;;6.00;99.90;;;;;;5022744;28;20200;-63
2023/01/15 08:35:36;;;;;;;5.27;5.07;;;6.00;99.90;;;;;;5032925;28;20214;-63
2023/01/15 08:38:06;;;;;;;6.00;5.80;;;6.00;99.90;;;;;;5034777;28;20266;-63
2023/01/15 08:40:32;;;;;;;5.23;5.03;;;6.00;99.90;;;;;;5015709;28;20223;-63
2023/01/15 08:42:57;;;;;;;5.47;5.27;;;6.00;99.90;;;;;;5014401;28;20223;-63
2023/01/15 08:45:23;;;;;;;5.50;5.30;;;6.00;99.90;;;;;;5014947;28;20703;-63
2023/01/15 08:47:49;;;;;;;5.30;5.10;;;6.00;99.90;;;;;;5014758;28;20274;-63
2023/01/15 08:50:14;;;;;;;5.80;5.50;;;6.00;99.90;;;;;;5015967;28;20191;-63
2023/01/15 08:52:40;;;;;;;6.20;5.80;;;6.00;99.90;;;;;;5024544;28;20203;-63
2023/01/15 08:55:06;;;;;;;6.30;6.00;;;6.00;99.90;;;;;;5033241;28;20636;-62
2023/01/15 08:57:32;;;;;;;7.03;6.67;;;6.00;99.90;;;;;;5030113;28;20183;-63
2023/01/15 08:59:58;;;;;;;5.67;5.37;;;6.00;99.90;;;;;;5034175;28;20187;-62
2023/01/15 09:02:23;;;;;;;6.20;5.80;;;5.90;99.90;;;;;;5020205;28;20211;-63
2023/01/15 09:04:51;;;;;;;5.80;5.50;;;5.80;99.90;;;;;;5014332;28;20176;-63
2023/01/15 09:07:16;;;;;;;5.10;4.90;;;5.80;99.90;;;;;;5026582;28;20211;-63
2023/01/15 09:09:42;;;;;;;6.40;5.77;;;5.70;99.90;;;;;;5032257;28;20193;-63
2023/01/15 09:12:07;;;;;;;5.47;5.07;;;5.60;99.90;;;;;;5023306;28;20204;-63
2023/01/15 09:14:33;;;;;;;5.60;5.30;;;5.60;99.90;;;;;;5021912;28;20255;-63
2023/01/15 09:16:59;;;;;;;5.70;5.40;;;5.60;99.90;;;;;;5017128;28;20195;-62
2023/01/15 09:19:24;;;;;;;5.00;4.80;;;5.50;99.90;;;;;;5013939;28;20181;-63
2023/01/15 09:21:50;;;;;;;5.97;5.50;;;5.60;99.90;;;;;;5025142;28;20684;-62
2023/01/15 09:24:15;;;;;;;6.03;5.67;;;5.50;99.90;;;;;;5032947;28;20255;-64
2023/01/15 09:26:41;;;;;;;5.97;5.60;;;5.60;99.90;;;;;;5023928;28;20594;-63
2023/01/15 09:29:07;;;;;;;5.50;5.00;;;5.60;99.90;;;;;;5014159;28;20257;-63
2023/01/15 09:31:33;;;;;;;5.50;5.20;;;5.60;99.90;;;;;;5021269;28;20439;-63
2023/01/15 09:33:59;;;;;;;5.43;5.23;;;5.60;99.90;;;;;;5033599;28;20191;-63
2023/01/15 09:36:32;;;;;;;6.00;5.50;;;5.70;99.90;;;;;;5032907;28;20262;-63
2023/01/15 09:38:59;;;;;;;5.63;5.33;;;5.80;99.90;;;;;;5033426;28;20218;-63
2023/01/15 09:44:45;;;;;;;5.30;5.10;;;6.70;99.90;;;;;;5014399;28;20275;-63
2023/01/15 09:47:32;;;;;;;6.10;5.60;;;7.30;99.90;;;;;;5024883;28;20203;-63
2023/01/15 09:50:15;;;;;;;9.20;4.90;;;7.70;99.90;;;;;;5033170;28;20242;-61
2023/01/15 09:52:59;;;;;;;4.40;4.13;;;8.00;99.90;;;;;;5017968;28;20206;-63
2023/01/15 09:55:28;;;;;;;5.87;5.47;;;8.00;99.90;;;;;;5013472;28;20186;-63
2023/01/15 09:58:00;;;;;;;7.00;6.40;;;8.10;99.90;;;;;;5032506;28;20645;-61
2023/01/15 10:00:39;;;;;;;14.00;5.90;;;8.40;99.90;;;;;;5031084;28;20179;-61
2023/01/15 10:03:28;;;;;;;5.23;4.83;;;8.70;99.90;;;;;;5033059;28;20210;-63
2023/01/15 10:06:39;;;;;;;5.43;4.00;;;9.10;99.90;;;;;;4993791;28;20180;-63
2023/01/15 10:09:19;;;;;;;10.27;9.30;;;9.30;99.90;;;;;;4966084;28;20184;-62
2023/01/15 10:15:06;;;;;;;4.80;4.50;;;9.50;99.90;;;;;;5012373;28;20191;-63
2023/01/15 10:17:41;;;;;;;4.20;4.00;;;9.50;99.90;;;;;;5005247;28;20206;-63
2023/01/15 10:20:34;;;;;;;4.50;4.30;;;9.40;99.90;;;;;;5015763;28;20721;-63
2023/01/15 10:23:31;;;;;;;4.83;4.63;;;9.30;99.90;;;;;;4992792;28;20204;-64
2023/01/15 10:26:02;;;;;;;4.87;4.37;;;8.80;99.90;;;;;;5000259;28;20193;-63
2023/01/15 10:28:40;;;;;;;10.00;9.50;;;8.80;99.90;;;;;;4992539;28;20726;-63
2023/01/15 10:31:17;;;;;;;5.90;5.50;;;9.00;99.90;;;;;;4992948;28;20255;-63
2023/01/15 10:34:04;;;;;;;4.37;3.83;;;9.30;99.90;;;;;;4994234;28;20204;-62
2023/01/15 10:36:51;;;;;;;7.20;6.90;;;9.50;99.90;;;;;;4992003;28;20243;-63
2023/01/15 10:39:33;;;;;;;5.63;5.33;;;9.50;99.90;;;;;;5002220;28;20206;-62
2023/01/15 10:42:45;;;;;;;5.07;4.83;;;9.60;99.90;;;;;;5032325;28;20294;-64
2023/01/15 10:45:14;;;;;;;4.83;4.43;;;9.50;99.90;;;;;;5030946;28;20545;-63
2023/01/15 10:47:42;;;;;;;4.87;4.67;;;9.10;99.90;;;;;;5032277;28;20310;-62
2023/01/15 10:50:26;;;;;;;4.60;4.30;;;9.20;99.90;;;;;;5014483;28;20183;-63
2023/01/15 10:53:24;;;;;;;6.17;5.57;;;9.40;99.90;;;;;;5010598;28;20196;-63
2023/01/15 10:55:56;;;;;;;5.50;4.00;;;9.30;99.90;;;;;;4992964;28;20180;-63
2023/01/15 10:58:38;;;;;;;4.40;4.20;;;9.40;99.90;;;;;;4996011;28;20449;-64
2023/01/15 11:01:10;;;;;;;6.53;4.17;;;9.50;99.90;;;;;;5012912;28;20321;-63
2023/01/15 11:03:38;;;;;;;4.30;4.00;;;9.70;99.90;;;;;;5020616;28;20629;-64
2023/01/15 11:06:10;;;;;;;4.67;4.47;;;9.70;99.90;;;;;;5032135;28;20167;-63
2023/01/15 11:08:38;;;;;;;4.67;4.37;;;9.40;99.90;;;;;;5023056;28;20187;-64
2023/01/15 11:19:38;;;;;;;4.83;4.57;;;9.10;99.90;;;;;;5029666;28;20637;-63
2023/01/15 11:22:17;;;;;;;4.97;4.67;;;8.90;99.90;;;;;;5031678;28;20245;-63
2023/01/15 11:24:52;;;;;;;4.93;4.73;;;8.80;99.90;;;;;;5012643;28;20618;-64
2023/01/15 11:27:24;;;;;;;4.90;4.70;;;8.70;99.90;;;;;;5011813;28;20245;-64
2023/01/15 11:29:52;;;;;;;7.23;4.37;;;9.00;99.90;;;;;;5026314;28;20214;-64
2023/01/15 11:32:38;;;;;;;4.30;4.10;;;9.20;99.90;;;;;;5031424;28;20608;-64
2023/01/15 11:35:15;;;;;;;5.80;5.60;;;9.20;99.90;;;;;;5013156;28;20623;-63
2023/01/15 11:37:41;;;;;;;6.30;5.80;;;9.10;99.90;;;;;;5011959;28;20194;-63
2023/01/15 11:40:15;;;;;;;20.03;19.07;;;8.90;99.90;;;;;;5029241;28;20187;-63
2023/01/15 11:51:12;;;;;;;6.23;5.73;;;8.60;99.90;;;;;;5011379;28;20200;-63
2023/01/15 11:53:41;;;;;;;7.10;6.80;;;8.60;99.90;;;;;;5015624;28;20282;-63
2023/01/15 11:56:10;;;;;;;7.20;6.80;;;8.50;99.90;;;;;;5030651;28;20167;-64
2023/01/15 11:58:57;;;;;;;5.60;5.20;;;8.40;99.90;;;;;;5014517;28;20290;-63
2023/01/15 12:01:27;;;;;;;6.30;5.40;;;8.20;99.90;;;;;;5030940;28;20175;-63
2023/01/15 12:03:53;;;;;;;7.17;6.73;;;8.10;99.90;;;;;;5030605;28;20278;-64
2023/01/15 12:06:20;;;;;;;11.37;10.63;;;8.00;99.90;;;;;;5031434;28;20195;-64
2023/01/15 12:08:54;;;;;;;9.07;8.67;;;8.10;99.90;;;;;;5028758;28;20167;-63
2023/01/15 12:11:23;;;;;;;5.13;4.73;;;8.30;99.90;;;;;;5011231;28;20178;-63
2023/01/15 12:14:22;;;;;;;5.27;5.07;;;8.50;99.90;;;;;;5012942;28;20188;-64
2023/01/15 12:16:58;;;;;;;5.20;4.90;;;8.80;99.90;;;;;;5031281;28;20182;-63
2023/01/15 12:19:58;;;;;;;10.20;5.97;;;8.80;99.90;;;;;;5022201;28;20184;-64
2023/01/15 12:22:45;;;;;;;5.03;4.53;;;9.00;99.90;;;;;;4999701;28;20216;-64
2023/01/15 12:25:29;;;;;;;5.10;4.70;;;9.00;99.90;;;;;;5026616;28;20206;-64
2023/01/15 12:28:09;;;;;;;8.17;7.80;;;8.90;99.90;;;;;;5031071;28;20671;-63
2023/01/15 12:30:37;;;;;;;5.70;4.93;;;9.00;99.90;;;;;;5016304;28;20606;-64
2023/01/15 12:33:08;;;;;;;4.77;4.57;;;9.00;99.90;;;;;;5011386;28;20203;-64
2023/01/15 12:35:39;;;;;;;4.50;4.30;;;9.10;99.90;;;;;;5011145;28;20354;-64
2023/01/15 12:38:40;;;;;;;6.43;5.63;;;9.30;99.90;;;;;;5020700;28;20531;-64
2023/01/15 12:41:24;;;;;;;4.73;4.43;;;9.50;99.90;;;;;;5011069;28;20171;-64
2023/01/15 12:46:43;;;;;;;4.73;4.53;;;9.90;99.90;;;;;;5030872;28;20238;-63
2023/01/15 12:49:30;;;;;;;4.83;4.57;;;9.70;99.90;;;;;;5010834;28;20551;-64
2023/01/15 12:52:19;;;;;;;4.67;4.37;;;9.30;99.90;;;;;;5011276;28;20172;-64
2023/01/15 12:54:54;;;;;;;5.07;4.87;;;9.40;99.90;;;;;;4995453;28;20169;-63
2023/01/15 12:57:43;;;;;;;6.13;5.83;;;9.50;99.90;;;;;;5003664;28;20179;-63
2023/01/15 13:00:08;;;;;;;4.80;4.50;;;9.50;99.90;;;;;;5029213;28;20290;-64
2023/01/15 13:03:08;;;;;;;6.67;6.37;;;9.60;99.90;;;;;;5012721;28;20278;-64
2023/01/15 13:05:47;;;;;;;5.17;4.97;;;9.50;99.90;;;;;;5021371;28;20645;-64
2023/01/15 13:08:24;;;;;;;5.33;4.83;;;9.10;99.90;;;;;;5034066;28;20245;-64
2023/01/15 13:10:51;;;;;;;6.33;6.03;;;8.90;99.90;;;;;;5024048;28;20238;-64
2023/01/15 13:13:17;;;;;;;5.03;4.77;;;9.00;99.90;;;;;;5014201;28;20270;-64
2023/01/15 13:16:01;;;;;;;5.33;5.00;;;9.10;99.90;;;;;;5022411;28;20746;-63
2023/01/15 13:18:39;;;;;;;6.20;5.90;;;9.30;99.90;;;;;;5033946;28;20180;-64
2023/01/15 13:21:13;;;;;;;6.20;5.80;;;9.50;99.90;;;;;;5022769;28;20176;-64
2023/01/15 13:24:01;;;;;;;4.57;4.37;;;9.80;99.90;;;;;;5013273;28;20277;-63
2023/01/15 13:26:48;;;;;;;4.40;4.20;;;10.10;99.90;;;;;;5026829;28;20538;-63
2023/01/15 13:29:43;;;;;;;4.00;3.80;;;9.90;99.90;;;;;;5019510;28;20669;-63
2023/01/15 13:32:32;;;;;;;4.83;4.50;;;9.80;99.90;;;;;;5014225;28;20311;-64
2023/01/15 13:35:06;;;;;;;5.70;5.50;;;9.90;99.90;;;;;;5012391;28;20231;-63
2023/01/15 13:37:47;;;;;;;7.93;4.70;;;9.80;99.90;;;;;;5014215;28;20231;-64
2023/01/15 13:40:31;;;;;;;11.73;4.57;;;9.70;99.90;;;;;;4994129;28;20219;-63
2023/01/15 13:42:57;;;;;;;4.30;4.10;;;9.70;99.90;;;;;;4998320;28;20255;-63
2023/01/15 13:45:26;;;;;;;4.23;4.00;;;9.60;99.90;;;;;;5033481;28;20262;-63
2023/01/15 13:47:55;;;;;;;8.67;8.17;;;9.40;99.90;;;;;;5032855;28;20194;-63
2023/01/15 13:50:34;;;;;;;4.87;4.60;;;9.10;99.90;;;;;;5013420;28;20234;-63
2023/01/15 13:53:34;;;;;;;4.97;4.63;;;8.80;99.90;;;;;;5014362;28;20235;-62
2023/01/15 13:56:08;;;;;;;4.60;4.40;;;8.70;99.90;;;;;;5029932;28;20179;-62
2023/01/15 13:58:38;;;;;;;4.87;4.67;;;8.50;99.90;;;;;;5014483;28;20174;-63
2023/01/15 14:01:19;;;;;;;5.43;5.00;;;8.40;99.90;;;;;;5033107;28;20176;-64
2023/01/15 14:04:03;;;;;;;5.70;5.20;;;8.40;99.90;;;;;;5027455;28;20191;-64
2023/01/15 14:06:42;;;;;;;5.00;4.80;;;8.30;99.90;;;;;;5032554;28;20290;-63
2023/01/15 14:09:22;;;;;;;5.27;4.90;;;8.30;99.90;;;;;;5026759;28;20751;-63
2023/01/15 14:11:54;;;;;;;6.23;5.00;;;8.30;99.90;;;;;;5033091;28;20175;-63
2023/01/15 14:14:44;;;;;;;5.87;5.47;;;8.30;99.90;;;;;;5015094;28;20179;-63
2023/01/15 14:17:31;;;;;;;5.10;4.80;;;8.40;99.90;;;;;;5013159;28;20184;-64
2023/01/15 14:20:22;;;;;;;5.20;4.80;;;8.40;99.90;;;;;;4993462;28;20260;-64